createdAt,value
2018-06-19T00:00:32.467Z,86.90
2018-06-19T00:03:00.436Z,86.60
2018-06-19T00:05:27.422Z,88.30
2018-06-19T00:07:54.409Z,88.10
2018-06-19T00:10:21.464Z,88.30
2018-06-19T00:12:48.455Z,88.30
2018-06-19T00:17:42.553Z,87.80
2018-06-19T00:20:09.536Z,87.70
2018-06-19T00:25:14.686Z,88.50
2018-06-19T00:27:44.458Z,88.60
2018-06-19T00:30:08.642Z,88.00
2018-06-19T00:32:35.661Z,87.00
2018-06-19T00:35:02.646Z,88.00
2018-06-19T00:37:29.630Z,88.70
2018-06-19T00:39:56.673Z,88.70
2018-06-19T00:42:23.652Z,88.90
2018-06-19T00:44:50.655Z,89.00
2018-06-19T00:47:17.693Z,89.90
2018-06-19T00:49:44.676Z,91.40
2018-06-19T00:52:11.659Z,91.00
2018-06-19T00:54:38.688Z,91.00
2018-06-19T00:57:06.033Z,90.40
2018-06-19T01:02:00.114Z,90.70
2018-06-19T01:04:27.117Z,90.50
2018-06-19T01:06:54.112Z,90.70
2018-06-19T01:09:21.143Z,89.00
2018-06-19T01:11:48.128Z,91.10
2018-06-19T01:14:15.105Z,91.10
2018-06-19T01:16:42.133Z,90.60
2018-06-19T01:19:09.437Z,91.30
2018-06-19T01:21:36.411Z,91.00
2018-06-19T01:24:03.427Z,91.00
2018-06-19T01:26:30.413Z,90.80
2018-06-19T01:28:57.402Z,90.60
2018-06-19T01:31:25.378Z,91.30
2018-06-19T01:33:52.362Z,91.30
2018-06-19T01:39:00.739Z,90.50
2018-06-19T01:41:31.533Z,90.90
2018-06-19T01:43:58.515Z,90.30
2018-06-19T01:46:25.536Z,90.10
2018-06-19T01:48:52.519Z,90.00
2018-06-19T01:51:19.505Z,90.30
2018-06-19T01:53:46.513Z,91.30
2018-06-19T01:56:13.491Z,91.40
2018-06-19T01:58:40.479Z,90.90
2018-06-19T02:01:07.512Z,91.20
2018-06-19T02:03:34.487Z,92.30
2018-06-19T02:06:01.470Z,92.50
2018-06-19T02:08:28.484Z,92.50
2018-06-19T02:10:57.328Z,92.30
2018-06-19T02:13:22.436Z,92.30
2018-06-19T02:15:49.454Z,91.70
2018-06-19T02:18:16.437Z,92.40
2018-06-19T02:20:43.414Z,91.90
2018-06-19T02:23:10.443Z,93.30
2018-06-19T02:25:37.427Z,93.10
2018-06-19T02:28:04.409Z,92.70
2018-06-19T02:30:31.430Z,92.50
2018-06-19T02:32:58.409Z,93.00
2018-06-19T02:35:25.391Z,93.20
2018-06-19T02:37:52.417Z,93.90
2018-06-19T02:40:19.396Z,95.50
2018-06-19T02:45:25.565Z,94.70
2018-06-19T02:47:52.536Z,95.30
2018-06-19T02:50:19.528Z,95.10
2018-06-19T02:52:46.546Z,94.90
2018-06-19T02:55:13.527Z,95.10
2018-06-19T02:57:40.508Z,95.20
2018-06-19T03:00:07.548Z,95.60
2018-06-19T03:02:34.520Z,95.70
2018-06-19T03:05:01.505Z,95.80
2018-06-19T03:07:28.510Z,95.40
2018-06-19T03:10:00.364Z,96.00
2018-06-19T03:12:27.342Z,94.90
2018-06-19T03:14:54.375Z,94.60
2018-06-19T03:17:21.370Z,95.40
2018-06-19T03:19:49.280Z,96.40
2018-06-19T03:22:16.307Z,95.80
2018-06-19T03:24:43.294Z,96.50
2018-06-19T03:27:10.280Z,97.70
2018-06-19T03:29:37.290Z,99.00
2018-06-19T03:32:04.272Z,99.50
2018-06-19T03:34:31.256Z,99.90
2018-06-19T03:36:58.280Z,99.40
2018-06-19T03:39:25.278Z,99.70
2018-06-19T03:41:52.608Z,98.80
2018-06-19T03:44:19.628Z,99.10
2018-06-19T03:46:46.612Z,99.40
2018-06-19T03:51:54.321Z,97.90
2018-06-19T03:54:21.368Z,97.60
2018-06-19T03:56:48.340Z,97.40
2018-06-19T03:59:15.360Z,98.10
2018-06-19T04:01:42.347Z,97.40
2018-06-19T04:04:09.330Z,96.90
2018-06-19T04:06:36.404Z,96.90
2018-06-19T04:11:30.456Z,96.80
2018-06-19T04:13:57.473Z,96.60
2018-06-19T04:16:24.458Z,97.60
2018-06-19T04:18:51.478Z,97.00
2018-06-19T04:21:18.505Z,97.00
2018-06-19T04:23:45.507Z,96.70
2018-06-19T04:26:12.484Z,96.50
2018-06-19T04:28:39.495Z,96.10
2018-06-19T04:31:06.475Z,95.60
2018-06-19T04:33:33.465Z,95.30
2018-06-19T04:36:00.483Z,92.80
2018-06-19T04:38:27.466Z,93.30
2018-06-19T04:40:54.450Z,93.50
2018-06-19T04:43:21.468Z,94.40
2018-06-19T04:48:18.435Z,94.30
2018-06-19T04:50:45.468Z,91.50
2018-06-19T04:53:13.262Z,91.70
2018-06-19T04:58:18.751Z,91.70
2018-06-19T05:00:45.726Z,88.60
2018-06-19T05:03:12.707Z,88.40
2018-06-19T05:05:39.728Z,88.30
2018-06-19T05:08:07.530Z,87.60
2018-06-19T05:10:36.413Z,85.60
2018-06-19T05:13:01.688Z,87.30
2018-06-19T05:18:09.698Z,85.40
2018-06-19T05:20:36.603Z,85.60
2018-06-19T05:23:03.602Z,86.10
2018-06-19T05:25:30.669Z,89.60
2018-06-19T05:27:57.653Z,86.60
2018-06-19T05:30:24.687Z,86.30
2018-06-19T05:35:18.715Z,88.50
2018-06-19T05:37:45.713Z,88.20
2018-06-19T05:40:15.655Z,85.90
2018-06-19T05:42:42.639Z,83.70
2018-06-19T05:45:09.625Z,82.90
2018-06-19T05:47:36.645Z,82.80
2018-06-19T05:50:04.479Z,83.50
2018-06-19T05:52:31.462Z,85.90
2018-06-19T05:54:58.486Z,87.40
2018-06-19T05:57:25.482Z,86.10
2018-06-19T05:59:52.470Z,84.80
2018-06-19T06:02:19.497Z,85.10
2018-06-19T06:04:46.487Z,81.70
2018-06-19T06:07:13.464Z,81.20
2018-06-19T06:09:40.475Z,82.90
2018-06-19T06:12:07.459Z,81.70
2018-06-19T06:17:12.991Z,79.80
2018-06-19T06:19:39.981Z,84.80
2018-06-19T06:22:06.967Z,86.50
2018-06-19T06:24:33.990Z,88.00
2018-06-19T06:27:02.320Z,88.90
2018-06-19T06:29:29.307Z,88.20
2018-06-19T06:31:56.329Z,87.50
2018-06-19T06:34:23.308Z,85.90
2018-06-19T06:36:50.290Z,86.70
2018-06-19T06:39:17.306Z,86.90
2018-06-19T06:41:44.288Z,89.70
2018-06-19T06:44:14.740Z,90.50
2018-06-19T06:46:41.763Z,91.10
2018-06-19T06:49:08.747Z,90.90
2018-06-19T06:54:03.775Z,87.50
2018-06-19T06:56:31.706Z,87.30
2018-06-19T06:58:58.695Z,87.40
2018-06-19T07:01:26.430Z,86.30
2018-06-19T07:03:53.438Z,86.40
2018-06-19T07:06:20.424Z,84.00
2018-06-19T07:08:47.439Z,85.80
2018-06-19T07:11:14.435Z,83.60
2018-06-19T07:13:41.415Z,85.60
2018-06-19T07:16:08.448Z,84.60
2018-06-19T07:21:13.922Z,83.60
2018-06-19T07:23:40.900Z,81.00
2018-06-19T07:26:07.925Z,81.20
2018-06-19T07:28:37.939Z,78.70
2018-06-19T07:31:04.920Z,77.40
2018-06-19T07:33:34.669Z,72.50
2018-06-19T07:36:01.683Z,74.10
2018-06-19T07:38:28.670Z,72.00
2018-06-19T07:40:55.653Z,71.90
2018-06-19T07:43:24.417Z,71.90
2018-06-19T07:45:49.682Z,75.60
2018-06-19T07:48:16.669Z,70.10
2018-06-19T07:50:43.705Z,72.70
2018-06-19T07:53:10.687Z,69.00
2018-06-19T07:55:37.738Z,67.80
2018-06-19T07:58:04.691Z,67.30
2018-06-19T08:00:31.680Z,67.20
2018-06-19T08:05:38.710Z,64.80
2018-06-19T08:08:05.696Z,68.90
2018-06-19T08:10:32.690Z,67.10
2018-06-19T08:12:59.725Z,63.30
2018-06-19T08:15:27.504Z,62.30
2018-06-19T08:20:22.470Z,66.80
2018-06-19T08:22:50.427Z,65.50
2018-06-19T08:25:21.221Z,62.60
2018-06-19T08:27:44.775Z,64.10
2018-06-19T08:30:12.579Z,66.60
2018-06-19T08:32:39.557Z,60.30
2018-06-19T08:35:06.745Z,61.70
2018-06-19T08:37:33.740Z,62.30
2018-06-19T08:40:00.730Z,61.00
2018-06-19T08:42:27.744Z,57.10
2018-06-19T08:44:54.727Z,58.30
2018-06-19T08:47:22.566Z,56.80
2018-06-19T08:49:49.601Z,56.00
2018-06-19T08:52:16.595Z,52.20
2018-06-19T08:54:43.585Z,49.20
2018-06-19T08:57:10.618Z,46.50
2018-06-19T08:59:37.662Z,48.00
2018-06-19T09:04:42.763Z,45.50
2018-06-19T09:09:36.803Z,38.50
2018-06-19T09:12:03.834Z,33.40
2018-06-19T09:14:31.767Z,35.40
2018-06-19T09:16:58.755Z,37.60
2018-06-19T09:19:25.767Z,30.40
2018-06-19T09:21:53.686Z,30.80
2018-06-19T09:24:26.476Z,30.00
2018-06-19T09:26:53.508Z,30.30
2018-06-19T09:29:20.489Z,27.10
2018-06-19T09:31:50.720Z,24.30
2018-06-19T09:34:17.715Z,25.00
2018-06-19T09:36:44.711Z,23.00
2018-06-19T09:39:11.705Z,23.00
2018-06-19T09:41:38.746Z,21.50
2018-06-19T09:44:05.880Z,20.30
2018-06-19T09:46:32.860Z,20.10
2018-06-19T09:48:59.903Z,20.10
2018-06-19T09:51:26.888Z,20.90
2018-06-19T09:56:20.979Z,19.40
2018-06-19T09:58:47.947Z,19.30
2018-06-19T10:01:14.936Z,17.90
2018-06-19T10:03:41.961Z,17.20
2018-06-19T10:06:10.877Z,18.80
2018-06-19T10:08:35.930Z,19.60
2018-06-19T10:11:02.963Z,19.10
2018-06-19T10:16:08.467Z,19.40
2018-06-19T10:18:35.456Z,19.10
2018-06-19T10:21:02.465Z,16.40
2018-06-19T10:23:29.515Z,16.20
2018-06-19T10:25:56.511Z,17.20
2018-06-19T10:28:23.489Z,16.70
2018-06-19T10:30:50.516Z,16.80
2018-06-19T10:33:17.521Z,14.40
2018-06-19T10:35:44.500Z,14.50
2018-06-19T10:38:13.388Z,15.20
2018-06-19T10:40:41.267Z,15.70
2018-06-19T10:43:08.255Z,16.80
2018-06-19T10:45:35.268Z,17.70
2018-06-19T10:48:03.126Z,16.40
2018-06-19T10:50:30.116Z,13.30
2018-06-19T10:55:25.042Z,15.90
2018-06-19T10:57:52.032Z,15.70
2018-06-19T11:00:19.050Z,16.70
2018-06-19T11:02:46.036Z,18.20
2018-06-19T11:05:14.464Z,15.20
2018-06-19T11:07:41.539Z,16.10
2018-06-19T11:10:08.520Z,14.00
2018-06-19T11:12:35.522Z,14.60
2018-06-19T11:15:02.572Z,15.20
2018-06-19T11:17:30.502Z,15.30
2018-06-19T11:19:58.288Z,15.70
2018-06-19T11:25:06.084Z,15.10
2018-06-19T11:27:33.922Z,15.80
2018-06-19T11:30:00.951Z,16.00
2018-06-19T11:32:28.748Z,17.00
2018-06-19T11:34:55.776Z,18.30
2018-06-19T11:37:22.773Z,17.40
2018-06-19T11:39:49.768Z,17.30
2018-06-19T11:42:16.788Z,17.20
2018-06-19T11:44:43.776Z,16.80
2018-06-19T11:47:10.757Z,16.60
2018-06-19T11:49:37.783Z,15.40
2018-06-19T11:52:04.778Z,17.80
2018-06-19T11:54:32.766Z,13.90
2018-06-19T11:57:02.884Z,14.50
2018-06-19T12:02:00.992Z,15.30
2018-06-19T12:04:28.020Z,15.60
2018-06-19T12:06:55.858Z,15.10
2018-06-19T12:09:22.843Z,11.60
2018-06-19T12:11:49.859Z,8.90
2018-06-19T12:14:16.853Z,10.50
2018-06-19T12:16:43.829Z,10.80
2018-06-19T12:19:10.850Z,11.00
2018-06-19T12:21:38.786Z,10.10
2018-06-19T12:24:05.777Z,9.60
2018-06-19T12:26:32.785Z,8.70
2018-06-19T12:29:00.551Z,8.60
2018-06-19T12:34:10.786Z,9.10
2018-06-19T12:36:38.537Z,8.40
2018-06-19T12:39:05.514Z,9.20
2018-06-19T12:43:59.622Z,7.90
2018-06-19T12:46:26.623Z,6.80
2018-06-19T12:48:53.641Z,5.90
2018-06-19T12:54:13.126Z,6.20
2018-06-19T12:56:40.116Z,6.80
2018-06-19T12:59:07.097Z,7.90
2018-06-19T13:01:34.112Z,7.50
2018-06-19T13:06:34.946Z,8.90
2018-06-19T13:09:01.882Z,7.20
2018-06-19T13:11:29.682Z,7.00
2018-06-19T13:16:55.185Z,6.10
2018-06-19T13:22:06.918Z,7.20
2018-06-19T13:24:33.945Z,7.70
2018-06-19T13:27:00.917Z,6.70
2018-06-19T13:29:39.758Z,6.10
2018-06-19T13:32:06.736Z,5.60
2018-06-19T13:34:33.728Z,6.50
2018-06-19T13:37:00.776Z,6.10
2018-06-19T13:39:27.750Z,7.00
2018-06-19T13:44:46.656Z,7.00
2018-06-19T13:47:13.689Z,6.90
2018-06-19T13:49:40.701Z,8.50
2018-06-19T13:52:08.493Z,6.90
2018-06-19T13:54:36.229Z,7.20
2018-06-19T13:57:03.228Z,7.80
2018-06-19T14:01:57.590Z,6.50
2018-06-19T14:09:37.209Z,7.10
2018-06-19T14:14:50.594Z,6.70
2018-06-19T14:17:17.602Z,5.60
2018-06-19T14:19:46.383Z,6.10
2018-06-19T14:22:13.400Z,6.10
2018-06-19T14:24:41.226Z,6.60
2018-06-19T14:27:08.985Z,7.10
2018-06-19T14:29:36.003Z,6.50
2018-06-19T14:32:02.983Z,6.80
2018-06-19T14:34:29.982Z,5.50
2018-06-19T14:36:56.995Z,6.30
2018-06-19T14:39:24.049Z,7.00
2018-06-19T14:41:51.035Z,6.60
2018-06-19T14:44:18.050Z,6.90
2018-06-19T14:46:45.037Z,5.70
2018-06-19T14:49:12.015Z,5.90
2018-06-19T14:51:39.022Z,6.00
2018-06-19T14:54:06.012Z,6.30
2018-06-19T14:56:33.004Z,6.30
2018-06-19T14:59:00.022Z,5.90
2018-06-19T15:01:27.829Z,7.30
2018-06-19T15:03:54.824Z,6.20
2018-06-19T15:06:21.832Z,6.90
2018-06-19T15:08:48.821Z,7.30
2018-06-19T15:11:16.522Z,7.30
2018-06-19T15:13:43.530Z,7.10
2018-06-19T15:18:38.329Z,6.80
2018-06-19T15:21:05.411Z,6.40
2018-06-19T15:23:32.393Z,7.30
2018-06-19T15:25:59.774Z,7.80
2018-06-19T15:31:06.093Z,6.30
2018-06-19T15:33:33.106Z,7.30
2018-06-19T15:36:00.091Z,7.10
2018-06-19T15:38:27.366Z,7.70
2018-06-19T15:40:54.394Z,8.50
2018-06-19T15:43:26.444Z,8.80
2018-06-19T15:45:48.396Z,9.20
2018-06-19T15:48:15.419Z,9.60
2018-06-19T15:50:42.421Z,9.10
2018-06-19T15:53:09.404Z,9.60
2018-06-19T15:55:36.414Z,9.80
2018-06-19T15:58:03.404Z,10.10
2018-06-19T16:00:31.208Z,9.20
2018-06-19T16:02:58.224Z,9.90
2018-06-19T16:05:25.209Z,10.30
2018-06-19T16:07:52.191Z,10.10
2018-06-19T16:10:19.208Z,10.70
2018-06-19T16:12:46.246Z,11.00
2018-06-19T16:15:13.186Z,10.50
2018-06-19T16:17:40.194Z,10.50
2018-06-19T16:20:07.182Z,10.50
2018-06-19T16:22:34.171Z,10.30
2018-06-19T16:25:01.185Z,10.30
2018-06-19T16:27:28.172Z,10.50
2018-06-19T16:29:55.158Z,11.60
2018-06-19T16:32:22.183Z,11.50
2018-06-19T16:34:49.171Z,10.80
2018-06-19T16:39:54.676Z,10.80
2018-06-19T16:42:22.647Z,13.90
2018-06-19T16:44:49.640Z,12.10
2018-06-19T16:47:16.668Z,14.00
2018-06-19T16:52:21.774Z,12.10
2018-06-19T16:54:48.856Z,11.40
2018-06-19T16:57:18.908Z,11.50
2018-06-19T16:59:45.932Z,11.30
2018-06-19T17:02:12.930Z,11.30
2018-06-19T17:04:39.921Z,11.40
2018-06-19T17:07:06.937Z,12.00
2018-06-19T17:09:33.922Z,11.80
2018-06-19T17:14:28.022Z,12.60
2018-06-19T17:16:55.015Z,12.40
2018-06-19T17:19:22.005Z,12.40
2018-06-19T17:21:49.019Z,14.70
2018-06-19T17:24:18.867Z,14.30
2018-06-19T17:26:43.927Z,13.90
2018-06-19T17:29:10.948Z,15.20
2018-06-19T17:31:37.934Z,15.90
2018-06-19T17:34:04.915Z,15.70
2018-06-19T17:36:32.779Z,16.20
2018-06-19T17:38:59.786Z,14.70
2018-06-19T17:41:26.780Z,17.40
2018-06-19T17:43:53.796Z,17.70
2018-06-19T17:46:20.799Z,17.70
2018-06-19T17:48:49.528Z,16.00
2018-06-19T17:53:43.624Z,16.60
2018-06-19T17:56:10.609Z,19.20
2018-06-19T17:58:40.470Z,19.90
2018-06-19T18:01:07.454Z,19.70
2018-06-19T18:03:36.260Z,19.50
2018-06-19T18:06:04.219Z,19.10
2018-06-19T18:08:31.135Z,19.20
2018-06-19T18:13:36.621Z,18.60
2018-06-19T18:16:03.759Z,18.20
2018-06-19T18:18:31.699Z,18.20
2018-06-19T18:20:58.727Z,18.00
2018-06-19T18:25:52.810Z,17.50
2018-06-19T18:28:20.572Z,17.90
2018-06-19T18:30:47.573Z,18.00
2018-06-19T18:33:14.608Z,18.70
2018-06-19T18:35:42.541Z,18.90
2018-06-19T18:40:38.724Z,19.20
2018-06-19T18:43:06.475Z,19.10
2018-06-19T18:45:33.460Z,19.40
2018-06-19T18:48:00.449Z,19.70
2018-06-19T18:50:28.463Z,19.50
2018-06-19T18:52:55.742Z,19.60
2018-06-19T18:55:22.727Z,20.00
2018-06-19T18:57:49.761Z,20.00
2018-06-19T19:00:16.747Z,20.10
2018-06-19T19:02:44.488Z,20.10
2018-06-19T19:05:12.264Z,20.30
2018-06-19T19:07:39.256Z,20.80
2018-06-19T19:10:07.090Z,20.00
2018-06-19T19:12:34.104Z,19.70
2018-06-19T19:15:01.907Z,19.40
2018-06-19T19:17:28.902Z,19.60
2018-06-19T19:19:55.940Z,19.60
2018-06-19T19:22:23.630Z,19.70
2018-06-19T19:24:50.625Z,20.00
2018-06-19T19:27:17.644Z,20.50
2018-06-19T19:29:45.475Z,19.80
2018-06-19T19:32:13.197Z,20.00
2018-06-19T19:34:40.205Z,20.60
2018-06-19T19:39:45.694Z,20.20
2018-06-19T19:42:12.684Z,21.30
2018-06-19T19:44:39.673Z,21.80
2018-06-19T19:47:06.784Z,21.50
2018-06-19T19:49:33.787Z,22.40
2018-06-19T19:52:01.501Z,22.00
2018-06-19T19:54:28.515Z,22.30
2018-06-19T19:56:55.496Z,22.10
2018-06-19T19:59:23.378Z,22.50
2018-06-19T20:01:50.406Z,22.30
2018-06-19T20:04:17.404Z,23.00
2018-06-19T20:09:11.526Z,23.50
2018-06-19T20:11:39.270Z,24.00
2018-06-19T20:14:07.083Z,23.40
2018-06-19T20:16:34.114Z,23.60
2018-06-19T20:19:01.103Z,24.20
2018-06-19T20:21:28.091Z,23.90
2018-06-19T20:23:55.108Z,23.60
2018-06-19T20:26:23.159Z,23.80
2018-06-19T20:28:50.148Z,24.60
2018-06-19T20:31:17.173Z,24.00
2018-06-19T20:33:44.169Z,25.20
2018-06-19T20:36:12.005Z,26.60
2018-06-19T20:38:39.021Z,25.80
2018-06-19T20:43:47.733Z,26.10
2018-06-19T20:46:15.579Z,27.20
2018-06-19T20:48:43.425Z,26.80
2018-06-19T20:51:10.444Z,25.30
2018-06-19T20:53:37.430Z,25.80
2018-06-19T20:56:04.803Z,26.20
2018-06-19T20:58:31.837Z,27.10
2018-06-19T21:00:59.639Z,27.50
2018-06-19T21:03:26.623Z,28.00
2018-06-19T21:05:53.642Z,27.90
2018-06-19T21:08:20.632Z,27.50
2018-06-19T21:10:47.611Z,27.90
2018-06-19T21:15:41.695Z,28.00
2018-06-19T21:18:09.543Z,28.10
2018-06-19T21:20:36.558Z,29.30
2018-06-19T21:23:03.568Z,29.40
2018-06-19T21:25:31.360Z,30.00
2018-06-19T21:27:58.384Z,31.40
2018-06-19T21:30:25.389Z,30.50
2018-06-19T21:32:52.374Z,31.40
2018-06-19T21:35:19.391Z,32.20
2018-06-19T21:40:13.450Z,33.10
2018-06-19T21:42:41.281Z,33.10
2018-06-19T21:52:42.424Z,32.90
2018-06-19T21:55:10.584Z,31.80
2018-06-19T21:57:37.572Z,32.40
2018-06-19T22:00:04.549Z,32.50
2018-06-19T22:02:31.542Z,33.00
2018-06-19T22:07:26.370Z,34.40
2018-06-19T22:09:53.463Z,34.80
2018-06-19T22:12:21.294Z,35.30
2018-06-19T22:14:49.386Z,38.20
2018-06-19T22:17:16.387Z,38.60
2018-06-19T22:19:44.711Z,38.30
2018-06-19T22:22:11.440Z,37.40
2018-06-19T22:24:38.513Z,37.60
2018-06-19T22:27:05.555Z,37.80
2018-06-19T22:29:32.538Z,38.00
2018-06-19T22:31:59.520Z,37.70
2018-06-19T22:34:26.536Z,44.30
2018-06-19T22:36:53.738Z,44.40
2018-06-19T22:39:20.723Z,45.00
2018-06-19T22:41:49.688Z,44.20
2018-06-19T22:49:21.298Z,50.50
2018-06-19T22:51:48.278Z,49.90
2018-06-19T22:54:15.270Z,48.70
2018-06-19T22:56:42.300Z,53.00
2018-06-19T22:59:09.292Z,54.00
2018-06-19T23:01:36.270Z,53.60
2018-06-19T23:04:03.286Z,52.70
2018-06-19T23:06:30.270Z,54.50
2018-06-19T23:08:57.263Z,54.60
2018-06-19T23:11:24.285Z,53.40
2018-06-19T23:13:51.275Z,56.20
2018-06-19T23:16:18.252Z,61.10
2018-06-19T23:18:45.283Z,61.30
2018-06-19T23:21:12.274Z,60.50
2018-06-19T23:26:06.375Z,59.60
2018-06-19T23:28:33.357Z,58.00
2018-06-19T23:31:00.906Z,57.70
2018-06-19T23:33:30.153Z,58.60
2018-06-19T23:35:57.137Z,59.10
2018-06-19T23:38:24.119Z,59.60
2018-06-19T23:40:51.173Z,59.90
2018-06-19T23:43:18.130Z,61.10
2018-06-19T23:45:45.947Z,60.50
2018-06-19T23:48:12.981Z,59.40
2018-06-19T23:50:39.989Z,58.10
2018-06-19T23:55:46.302Z,62.30
2018-06-19T23:58:15.056Z,60.40
